Sulphur, Nevada
Current Conditions -  °F | °C
As of 1:56 AM on Friday 24 Oct 2014 (Local Time) from KWMC Reporting Station
Scattered Clouds Scattered Clouds  
Wind Chill: 39°   Ceiling: Unl
Heat Index: 39°   Visibility: 10mi
Dew Point: 31°   Wind: 3mph
Humidity: 73%   Direction: 20°NNE
Pressure: 30.1"   Gusts: NA
Location:  41.1353°N, 118.186°W
Report Text: KWMC 240856Z AUTO 02003KT 10SM SCT090 04/M01 A3010 RMK AO2 SLP174 T00391006 53001
Loading
Personal Weather Stations






























Interactive Weather Map
Tropical Storm Tracking
New forecast layout! Learn more

10-Day Weather Forecast

Advertisements
Track Severe Weather on mobile